Time;durP1;ratioP1;P1;durP2;ratioP2;P2;SDS_P1;SDS_P2;PMS_P1;PMS_P2;Temp;Humidity;BMP_temperature;BMP_pressure;BME280_temperature;BME280_humidity;BME280_pressure;Samples;Min_cycle;Max_cycle;Signal;HPM_P1;HPM_P2
2022/07/27 00:00:44;;;;;;;0.10;0.10;;;;;;;;;;5061531;28;20424;-92
2022/07/27 00:03:10;;;;;;;0.10;0.10;;;;;;;;;;5036593;28;20509;-96
2022/07/27 00:05:38;;;;;;;0.00;0.00;;;;;;;;;;5016336;28;20648;-96
2022/07/27 00:08:05;;;;;;;0.00;0.00;;;;;;;;;;5041849;28;20483;-96
2022/07/27 00:10:31;;;;;;;0.10;0.10;;;;;;;;;;5055327;28;20499;-96
2022/07/27 00:12:57;;;;;;;0.00;0.00;;;;;;;;;;5041960;28;20506;-95
2022/07/27 00:15:23;;;;;;;0.00;0.00;;;;;;;;;;5022761;28;20461;-96
2022/07/27 00:17:49;;;;;;;0.10;0.10;;;;;;;;;;5037815;28;20448;-95
2022/07/27 00:20:15;;;;;;;0.00;0.00;;;;;;;;;;5018742;28;20423;-96
2022/07/27 00:22:41;;;;;;;0.10;0.10;;;;;;;;;;5045502;28;20441;-96
2022/07/27 00:25:08;;;;;;;0.10;0.10;;;;;;;;;;5049842;28;20430;-96
2022/07/27 00:27:34;;;;;;;0.00;0.00;;;;;;;;;;5033636;28;20436;-95
2022/07/27 00:30:00;;;;;;;0.10;0.10;;;;;;;;;;5033343;28;21119;-96
2022/07/27 00:32:26;;;;;;;0.00;0.00;;;;;;;;;;5065830;28;20455;-96
2022/07/27 00:34:52;;;;;;;0.10;0.10;;;;;;;;;;5035449;28;20769;-96
2022/07/27 00:37:18;;;;;;;0.10;0.10;;;;;;;;;;5045153;28;20951;-96
2022/07/27 00:39:44;;;;;;;0.10;0.10;;;;;;;;;;5016428;28;20744;-96
2022/07/27 00:42:10;;;;;;;0.20;0.20;;;;;;;;;;5068560;28;20431;-95
2022/07/27 00:44:37;;;;;;;0.00;0.00;;;;;;;;;;5059459;28;21028;-96
2022/07/27 00:47:03;;;;;;;0.00;0.00;;;;;;;;;;5092263;28;20407;-91
2022/07/27 00:49:29;;;;;;;0.10;0.10;;;;;;;;;;5059327;28;20424;-93
2022/07/27 00:51:55;;;;;;;0.10;0.10;;;;;;;;;;5055862;28;20483;-88
2022/07/27 00:54:21;;;;;;;0.10;0.10;;;;;;;;;;5078550;28;20501;-87
2022/07/27 00:56:48;;;;;;;0.03;0.03;;;;;;;;;;5059917;28;20421;-88
2022/07/27 00:59:14;;;;;;;0.03;0.03;;;;;;;;;;5067353;28;20501;-93
2022/07/27 01:01:41;;;;;;;0.10;0.10;;;;;;;;;;5074717;28;20426;-87
2022/07/27 01:04:07;;;;;;;0.10;0.10;;;;;;;;;;5064085;28;20480;-93
2022/07/27 01:06:34;;;;;;;0.03;0.03;;;;;;;;;;5079191;28;20430;-95
2022/07/27 01:11:45;;;;;;;0.00;0.00;;;;;;;;;;5076411;28;20443;-95
2022/07/27 01:14:15;;;;;;;0.10;0.10;;;;;;;;;;5072599;28;20415;-91
2022/07/27 01:16:41;;;;;;;0.10;0.10;;;;;;;;;;5053462;28;20418;-92
2022/07/27 01:19:11;;;;;;;0.10;0.10;;;;;;;;;;5066965;28;20433;-96
2022/07/27 01:21:37;;;;;;;0.03;0.03;;;;;;;;;;5049029;28;20437;-95
2022/07/27 01:24:04;;;;;;;0.00;0.00;;;;;;;;;;5016038;28;20455;-96
2022/07/27 01:26:30;;;;;;;0.10;0.10;;;;;;;;;;5046813;28;20478;-95
2022/07/27 01:28:57;;;;;;;0.00;0.00;;;;;;;;;;5047176;28;20427;-89
2022/07/27 01:31:23;;;;;;;0.03;0.03;;;;;;;;;;5033509;28;20429;-96
2022/07/27 01:33:49;;;;;;;0.00;0.00;;;;;;;;;;5056770;28;20477;-90
2022/07/27 01:36:15;;;;;;;0.00;0.00;;;;;;;;;;5038674;28;20429;-93
2022/07/27 01:38:41;;;;;;;0.00;0.00;;;;;;;;;;5051582;28;20425;-96
2022/07/27 01:41:08;;;;;;;0.10;0.10;;;;;;;;;;5027255;28;20447;-96
2022/07/27 01:43:34;;;;;;;0.10;0.10;;;;;;;;;;5065985;28;20915;-95
2022/07/27 01:46:00;;;;;;;0.10;0.10;;;;;;;;;;5055661;28;20841;-94
2022/07/27 01:48:26;;;;;;;0.00;0.00;;;;;;;;;;5023354;28;20470;-96
2022/07/27 01:50:52;;;;;;;0.00;0.00;;;;;;;;;;5056738;28;20496;-96
2022/07/27 01:53:19;;;;;;;0.35;0.15;;;;;;;;;;5029692;28;20426;-94
2022/07/27 01:55:45;;;;;;;0.20;0.20;;;;;;;;;;5043618;28;20457;-96
2022/07/27 01:58:11;;;;;;;0.10;0.10;;;;;;;;;;5046539;28;20504;-96
2022/07/27 02:00:38;;;;;;;0.10;0.10;;;;;;;;;;5047323;28;20431;-95
2022/07/27 02:03:05;;;;;;;0.10;0.10;;;;;;;;;;5062697;28;20455;-94
2022/07/27 02:05:31;;;;;;;0.10;0.10;;;;;;;;;;5036567;28;20427;-95
2022/07/27 02:07:57;;;;;;;0.10;0.10;;;;;;;;;;5064792;28;20443;-91
2022/07/27 02:10:23;;;;;;;0.10;0.10;;;;;;;;;;5033905;28;20427;-94
2022/07/27 02:12:50;;;;;;;0.00;0.00;;;;;;;;;;5054322;28;20423;-90
2022/07/27 02:15:21;;;;;;;0.00;0.00;;;;;;;;;;5055351;28;20433;-93
2022/07/27 02:17:47;;;;;;;0.10;0.10;;;;;;;;;;5063345;28;20433;-93
2022/07/27 02:20:14;;;;;;;0.00;0.00;;;;;;;;;;5040609;28;20455;-94
2022/07/27 02:22:41;;;;;;;0.00;0.00;;;;;;;;;;5049561;28;20429;-93
2022/07/27 02:25:07;;;;;;;0.10;0.10;;;;;;;;;;5008039;28;20774;-94
2022/07/27 02:27:33;;;;;;;0.10;0.10;;;;;;;;;;5040775;28;20466;-92
2022/07/27 02:30:00;;;;;;;0.10;0.10;;;;;;;;;;5027926;28;20978;-94
2022/07/27 02:32:26;;;;;;;0.03;0.03;;;;;;;;;;5021058;28;20431;-93
2022/07/27 02:34:52;;;;;;;0.10;0.10;;;;;;;;;;5054863;28;20428;-93
2022/07/27 02:37:18;;;;;;;0.10;0.10;;;;;;;;;;5044396;28;20434;-89
2022/07/27 02:39:44;;;;;;;0.10;0.10;;;;;;;;;;5055320;28;20420;-95
2022/07/27 02:42:10;;;;;;;0.20;0.20;;;;;;;;;;5026941;28;20470;-94
2022/07/27 02:44:36;;;;;;;0.10;0.10;;;;;;;;;;5029283;28;20423;-91
2022/07/27 02:47:03;;;;;;;0.10;0.10;;;;;;;;;;5026685;28;20433;-87
2022/07/27 02:49:29;;;;;;;0.10;0.10;;;;;;;;;;5034552;28;20425;-96
2022/07/27 02:51:55;;;;;;;0.10;0.10;;;;;;;;;;5027112;28;20427;-93
2022/07/27 02:54:23;;;;;;;0.10;0.10;;;;;;;;;;5037763;28;20896;-93
2022/07/27 02:56:50;;;;;;;0.03;0.03;;;;;;;;;;5035331;28;20438;-94
2022/07/27 02:59:17;;;;;;;0.00;0.00;;;;;;;;;;5030530;28;20764;-95
2022/07/27 03:01:43;;;;;;;0.00;0.00;;;;;;;;;;5034254;28;20835;-96
2022/07/27 03:04:09;;;;;;;0.10;0.10;;;;;;;;;;5028666;28;20504;-94
2022/07/27 03:06:36;;;;;;;0.10;0.10;;;;;;;;;;5031349;28;20431;-95
2022/07/27 03:09:02;;;;;;;0.10;0.10;;;;;;;;;;5046739;28;20426;-96
2022/07/27 03:11:29;;;;;;;0.00;0.00;;;;;;;;;;5042214;28;20426;-95
2022/07/27 03:13:55;;;;;;;0.00;0.00;;;;;;;;;;5034152;28;20440;-95
2022/07/27 03:16:21;;;;;;;0.03;0.03;;;;;;;;;;5038837;28;20472;-95
2022/07/27 03:18:47;;;;;;;0.00;0.00;;;;;;;;;;5026617;28;20576;-95
2022/07/27 03:21:14;;;;;;;0.00;0.00;;;;;;;;;;5046980;28;20444;-95
2022/07/27 03:23:40;;;;;;;0.00;0.00;;;;;;;;;;5050946;28;20424;-91
2022/07/27 03:26:06;;;;;;;0.00;0.00;;;;;;;;;;5031906;28;20465;-90
2022/07/27 03:28:32;;;;;;;0.05;0.05;;;;;;;;;;5032516;28;20920;-93
2022/07/27 03:30:58;;;;;;;0.10;0.10;;;;;;;;;;5048637;28;20436;-95
2022/07/27 03:33:24;;;;;;;0.10;0.10;;;;;;;;;;5040836;28;20442;-94
2022/07/27 03:35:51;;;;;;;0.10;0.10;;;;;;;;;;5036410;28;20437;-95
2022/07/27 03:38:17;;;;;;;0.10;0.10;;;;;;;;;;5043063;28;20917;-95
2022/07/27 03:40:44;;;;;;;0.10;0.10;;;;;;;;;;5016889;28;20432;-95
2022/07/27 03:43:10;;;;;;;0.00;0.00;;;;;;;;;;5054559;28;20419;-95
2022/07/27 03:45:36;;;;;;;0.00;0.00;;;;;;;;;;5020870;28;20434;-95
2022/07/27 03:48:03;;;;;;;0.10;0.10;;;;;;;;;;5045927;28;20451;-83
2022/07/27 03:50:29;;;;;;;0.10;0.10;;;;;;;;;;5032951;28;20419;-95
2022/07/27 03:52:55;;;;;;;0.00;0.00;;;;;;;;;;5015661;28;20433;-95
2022/07/27 03:55:21;;;;;;;0.00;0.00;;;;;;;;;;5033614;28;20429;-94
2022/07/27 03:57:47;;;;;;;0.00;0.00;;;;;;;;;;5036895;28;20430;-94
2022/07/27 04:00:14;;;;;;;0.10;0.10;;;;;;;;;;5036111;28;20425;-96
2022/07/27 04:02:40;;;;;;;0.00;0.00;;;;;;;;;;5047392;28;20522;-95
2022/07/27 04:05:07;;;;;;;0.00;0.00;;;;;;;;;;5050891;28;20429;-93
2022/07/27 04:07:33;;;;;;;0.00;0.00;;;;;;;;;;5046992;28;20460;-96
2022/07/27 04:09:59;;;;;;;0.10;0.10;;;;;;;;;;5053032;28;20472;-88
2022/07/27 04:12:25;;;;;;;0.10;0.10;;;;;;;;;;5055323;28;20975;-87
2022/07/27 04:14:51;;;;;;;0.10;0.10;;;;;;;;;;5054797;28;20427;-81
2022/07/27 04:17:18;;;;;;;0.00;0.00;;;;;;;;;;5045872;28;20921;-88
2022/07/27 04:19:44;;;;;;;0.10;0.10;;;;;;;;;;5035499;28;20770;-87
2022/07/27 04:22:10;;;;;;;0.00;0.00;;;;;;;;;;5049064;28;20761;-83
2022/07/27 04:24:36;;;;;;;0.30;0.30;;;;;;;;;;5037726;28;20428;-92
2022/07/27 04:27:02;;;;;;;0.10;0.10;;;;;;;;;;5038265;28;20450;-86
2022/07/27 04:29:28;;;;;;;0.10;0.10;;;;;;;;;;5041117;28;20433;-87
2022/07/27 04:31:54;;;;;;;0.10;0.10;;;;;;;;;;5042347;28;20429;-89
2022/07/27 04:34:20;;;;;;;0.10;0.10;;;;;;;;;;5070986;28;20428;-94
2022/07/27 04:36:46;;;;;;;0.00;0.00;;;;;;;;;;5058908;28;20450;-91
2022/07/27 04:39:12;;;;;;;0.00;0.00;;;;;;;;;;5043900;28;20539;-95
2022/07/27 04:41:38;;;;;;;0.10;0.10;;;;;;;;;;5051480;28;20431;-96
2022/07/27 04:44:04;;;;;;;0.00;0.00;;;;;;;;;;5044440;28;20932;-94
2022/07/27 04:46:30;;;;;;;0.00;0.00;;;;;;;;;;5046611;28;20431;-96
2022/07/27 04:48:56;;;;;;;3.60;0.30;;;;;;;;;;5026577;28;20437;-96
2022/07/27 04:51:23;;;;;;;0.00;0.00;;;;;;;;;;5059766;28;20553;-96
2022/07/27 04:53:49;;;;;;;0.10;0.10;;;;;;;;;;5059340;28;20447;-95
2022/07/27 04:56:15;;;;;;;0.00;0.00;;;;;;;;;;5046540;28;20433;-84
2022/07/27 04:58:41;;;;;;;0.00;0.00;;;;;;;;;;5066027;28;20425;-96
2022/07/27 05:01:07;;;;;;;0.10;0.10;;;;;;;;;;5048896;28;20447;-96
2022/07/27 05:03:33;;;;;;;0.10;0.10;;;;;;;;;;5055779;28;20425;-96
2022/07/27 05:05:59;;;;;;;0.70;0.60;;;;;;;;;;5042961;28;20429;-90
2022/07/27 05:08:25;;;;;;;0.10;0.10;;;;;;;;;;5043769;28;20422;-87
2022/07/27 05:10:51;;;;;;;0.10;0.10;;;;;;;;;;5048240;28;20432;-86
2022/07/27 05:13:17;;;;;;;0.10;0.10;;;;;;;;;;5047060;28;20425;-84
2022/07/27 05:15:43;;;;;;;0.00;0.00;;;;;;;;;;5047838;28;20483;-85
2022/07/27 05:18:09;;;;;;;0.10;0.10;;;;;;;;;;5048937;28;20509;-87
2022/07/27 05:20:35;;;;;;;0.00;0.00;;;;;;;;;;5013864;28;20481;-87
2022/07/27 05:23:01;;;;;;;0.08;0.08;;;;;;;;;;5040851;28;20433;-86
2022/07/27 05:25:27;;;;;;;0.00;0.00;;;;;;;;;;5028760;28;22167;-88
2022/07/27 05:27:53;;;;;;;0.00;0.00;;;;;;;;;;5031840;28;20767;-84
2022/07/27 05:30:20;;;;;;;0.10;0.10;;;;;;;;;;5028631;28;20508;-82
2022/07/27 05:32:46;;;;;;;0.10;0.10;;;;;;;;;;5026240;28;20466;-84
2022/07/27 05:35:12;;;;;;;0.10;0.10;;;;;;;;;;5030578;28;20423;-87
2022/07/27 05:37:39;;;;;;;0.08;0.08;;;;;;;;;;5039017;28;20506;-89
2022/07/27 05:40:06;;;;;;;0.10;0.10;;;;;;;;;;5027567;28;20411;-85
2022/07/27 05:42:32;;;;;;;0.10;0.10;;;;;;;;;;5026038;28;20491;-88
2022/07/27 05:44:58;;;;;;;0.10;0.10;;;;;;;;;;5042654;28;20914;-90
2022/07/27 05:47:24;;;;;;;0.10;0.10;;;;;;;;;;5033392;28;20993;-86
2022/07/27 05:49:50;;;;;;;0.10;0.10;;;;;;;;;;5044495;28;20421;-88
2022/07/27 05:52:17;;;;;;;0.00;0.00;;;;;;;;;;5047252;28;20449;-87
2022/07/27 05:54:43;;;;;;;0.10;0.10;;;;;;;;;;5030492;28;20435;-85
2022/07/27 05:57:09;;;;;;;0.08;0.08;;;;;;;;;;5050417;28;20425;-87
2022/07/27 05:59:35;;;;;;;0.10;0.10;;;;;;;;;;5047658;28;20433;-89
2022/07/27 06:02:02;;;;;;;0.20;0.20;;;;;;;;;;5032900;28;20560;-90
2022/07/27 06:04:28;;;;;;;0.10;0.10;;;;;;;;;;5047845;28;20447;-90
2022/07/27 06:09:39;;;;;;;0.10;0.10;;;;;;;;;;5044670;28;20829;-86
2022/07/27 06:12:05;;;;;;;0.00;0.00;;;;;;;;;;5064326;28;20425;-85
2022/07/27 06:14:31;;;;;;;0.10;0.10;;;;;;;;;;5051308;28;20433;-85
2022/07/27 06:16:57;;;;;;;0.10;0.10;;;;;;;;;;5055970;28;20439;-89
2022/07/27 06:19:24;;;;;;;0.32;0.28;;;;;;;;;;5047594;28;20056;-87
2022/07/27 06:21:50;;;;;;;0.10;0.10;;;;;;;;;;5030058;28;20391;-86
2022/07/27 06:24:16;;;;;;;0.00;0.00;;;;;;;;;;5031235;28;20751;-86
2022/07/27 06:26:43;;;;;;;0.00;0.00;;;;;;;;;;5050910;28;20049;-86
2022/07/27 06:29:09;;;;;;;0.00;0.00;;;;;;;;;;5072882;28;20436;-86
2022/07/27 06:31:35;;;;;;;0.40;0.40;;;;;;;;;;5031884;28;20065;-87
2022/07/27 06:34:01;;;;;;;0.10;0.10;;;;;;;;;;5030501;28;20095;-87
2022/07/27 06:36:27;;;;;;;0.10;0.10;;;;;;;;;;5030950;28;20044;-87
2022/07/27 06:38:53;;;;;;;0.10;0.10;;;;;;;;;;5039605;28;20510;-87
2022/07/27 06:41:19;;;;;;;0.10;0.10;;;;;;;;;;5040771;28;20493;-87
2022/07/27 06:43:45;;;;;;;0.00;0.00;;;;;;;;;;5031068;28;20049;-87
2022/07/27 06:46:13;;;;;;;0.00;0.00;;;;;;;;;;5014345;28;20049;-86
2022/07/27 06:48:39;;;;;;;0.00;0.00;;;;;;;;;;5048271;28;20067;-87
2022/07/27 06:51:06;;;;;;;0.10;0.10;;;;;;;;;;5032465;28;20053;-86
2022/07/27 06:53:32;;;;;;;0.00;0.00;;;;;;;;;;5044774;28;20059;-87
2022/07/27 06:56:02;;;;;;;0.20;0.20;;;;;;;;;;5041990;28;20095;-86
2022/07/27 06:58:29;;;;;;;0.10;0.10;;;;;;;;;;5007582;28;20049;-87
2022/07/27 07:00:56;;;;;;;0.10;0.10;;;;;;;;;;5023097;28;20124;-84
2022/07/27 07:03:23;;;;;;;0.10;0.10;;;;;;;;;;5047103;28;20049;-85
2022/07/27 07:05:49;;;;;;;0.10;0.10;;;;;;;;;;5043643;28;20048;-84
2022/07/27 07:08:15;;;;;;;0.10;0.10;;;;;;;;;;5042047;28;20037;-84
2022/07/27 07:10:42;;;;;;;0.10;0.10;;;;;;;;;;5035899;28;20433;-86
2022/07/27 07:13:09;;;;;;;0.10;0.10;;;;;;;;;;5027892;28;20429;-85
2022/07/27 07:15:36;;;;;;;0.10;0.10;;;;;;;;;;5026320;28;20506;-87
2022/07/27 07:18:02;;;;;;;0.10;0.10;;;;;;;;;;5045068;28;20504;-88
2022/07/27 07:20:29;;;;;;;0.00;0.00;;;;;;;;;;5039073;28;20466;-87
2022/07/27 07:22:55;;;;;;;0.30;0.30;;;;;;;;;;5030127;28;20430;-80
2022/07/27 07:25:21;;;;;;;0.10;0.10;;;;;;;;;;5027885;28;20421;-84
2022/07/27 07:27:47;;;;;;;0.10;0.10;;;;;;;;;;5046606;28;20437;-84
2022/07/27 07:30:13;;;;;;;0.10;0.10;;;;;;;;;;5047857;28;20426;-82
2022/07/27 07:32:39;;;;;;;0.08;0.08;;;;;;;;;;5044314;28;20486;-83
2022/07/27 07:35:06;;;;;;;2.25;0.25;;;;;;;;;;5033182;28;20482;-84
2022/07/27 07:37:32;;;;;;;0.10;0.10;;;;;;;;;;5030875;28;20425;-88
2022/07/27 07:39:58;;;;;;;0.10;0.10;;;;;;;;;;5048527;28;20432;-85
2022/07/27 07:42:25;;;;;;;0.00;0.00;;;;;;;;;;5043818;28;20423;-86
2022/07/27 07:44:51;;;;;;;0.10;0.10;;;;;;;;;;5015679;28;20480;-86
2022/07/27 07:47:17;;;;;;;0.03;0.03;;;;;;;;;;5048359;28;20452;-88
2022/07/27 07:49:43;;;;;;;0.40;0.40;;;;;;;;;;5032177;28;20800;-87
2022/07/27 07:52:11;;;;;;;0.10;0.10;;;;;;;;;;5043886;28;21717;-86
2022/07/27 07:54:38;;;;;;;0.00;0.00;;;;;;;;;;5021413;28;20429;-87
2022/07/27 07:57:04;;;;;;;0.10;0.10;;;;;;;;;;5016085;28;20425;-86
2022/07/27 07:59:30;;;;;;;0.10;0.10;;;;;;;;;;5046870;28;20512;-86
2022/07/27 08:01:56;;;;;;;0.10;0.10;;;;;;;;;;5032836;28;20504;-89
2022/07/27 08:04:22;;;;;;;0.03;0.03;;;;;;;;;;5051125;28;20483;-84
2022/07/27 08:06:48;;;;;;;0.10;0.10;;;;;;;;;;5053435;28;20504;-87
2022/07/27 08:09:15;;;;;;;0.20;0.20;;;;;;;;;;5043915;28;20441;-86
2022/07/27 08:11:42;;;;;;;0.10;0.10;;;;;;;;;;5040441;28;20421;-88
2022/07/27 08:14:08;;;;;;;0.00;0.00;;;;;;;;;;5056415;28;20487;-86
2022/07/27 08:16:34;;;;;;;0.00;0.00;;;;;;;;;;5053319;28;20432;-86
2022/07/27 08:19:00;;;;;;;0.10;0.10;;;;;;;;;;5021668;28;20425;-86
2022/07/27 08:21:26;;;;;;;0.00;0.00;;;;;;;;;;5052159;28;20470;-87
2022/07/27 08:23:53;;;;;;;0.00;0.00;;;;;;;;;;5035642;28;20430;-86
2022/07/27 08:26:19;;;;;;;0.05;0.05;;;;;;;;;;5033245;28;20487;-87
2022/07/27 08:28:45;;;;;;;0.10;0.10;;;;;;;;;;5022789;28;20953;-86
2022/07/27 08:31:11;;;;;;;0.10;0.10;;;;;;;;;;5048138;28;20429;-85
2022/07/27 08:33:37;;;;;;;0.10;0.10;;;;;;;;;;5047156;28;20427;-85
2022/07/27 08:36:04;;;;;;;0.10;0.10;;;;;;;;;;5052423;28;20429;-86
2022/07/27 08:38:30;;;;;;;0.10;0.10;;;;;;;;;;5048485;28;20885;-85
2022/07/27 08:40:56;;;;;;;0.30;0.20;;;;;;;;;;5049753;28;20425;-87
2022/07/27 08:43:24;;;;;;;0.10;0.10;;;;;;;;;;5032346;28;20457;-87
2022/07/27 08:45:55;;;;;;;0.00;0.00;;;;;;;;;;5012884;28;20430;-85
2022/07/27 08:48:21;;;;;;;0.10;0.10;;;;;;;;;;5043731;28;20429;-85
2022/07/27 08:50:48;;;;;;;0.10;0.10;;;;;;;;;;5032045;28;20784;-86
2022/07/27 08:53:15;;;;;;;0.10;0.10;;;;;;;;;;5044737;28;20978;-85
2022/07/27 08:55:46;;;;;;;0.10;0.10;;;;;;;;;;5049365;28;20449;-85
2022/07/27 08:58:13;;;;;;;0.10;0.10;;;;;;;;;;5031091;28;20426;-85
2022/07/27 09:00:40;;;;;;;0.10;0.10;;;;;;;;;;5049402;28;20436;-86
2022/07/27 09:03:06;;;;;;;0.00;0.00;;;;;;;;;;5034550;28;20436;-85
2022/07/27 09:05:32;;;;;;;0.10;0.10;;;;;;;;;;5048960;28;20465;-85
2022/07/27 09:08:09;;;;;;;0.10;0.10;;;;;;;;;;5039401;28;20427;-85
2022/07/27 09:10:37;;;;;;;0.10;0.10;;;;;;;;;;5032405;28;20444;-84
2022/07/27 09:13:26;;;;;;;0.10;0.10;;;;;;;;;;5031660;28;20441;-89
2022/07/27 09:15:57;;;;;;;0.10;0.10;;;;;;;;;;5051640;28;20444;-90
2022/07/27 09:18:24;;;;;;;0.10;0.10;;;;;;;;;;5036657;28;20433;-89
2022/07/27 09:21:10;;;;;;;0.10;0.10;;;;;;;;;;5042940;28;20518;-90
2022/07/27 09:23:36;;;;;;;0.00;0.00;;;;;;;;;;5036519;28;20429;-89
2022/07/27 09:26:09;;;;;;;0.10;0.10;;;;;;;;;;5004314;28;20497;-91
2022/07/27 09:28:35;;;;;;;0.10;0.10;;;;;;;;;;5039691;28;20462;-95
2022/07/27 09:31:08;;;;;;;0.10;0.10;;;;;;;;;;5047701;28;20425;-93
2022/07/27 09:33:42;;;;;;;0.10;0.10;;;;;;;;;;5047646;28;20449;-93
2022/07/27 09:36:09;;;;;;;0.10;0.10;;;;;;;;;;5049725;28;20485;-93
2022/07/27 09:38:35;;;;;;;0.10;0.10;;;;;;;;;;5052691;28;20569;-88
2022/07/27 09:41:01;;;;;;;0.10;0.10;;;;;;;;;;5032538;28;20517;-87
2022/07/27 09:43:28;;;;;;;0.10;0.10;;;;;;;;;;5036142;28;20475;-89
2022/07/27 09:45:54;;;;;;;0.10;0.10;;;;;;;;;;5030966;28;20477;-88
2022/07/27 09:48:22;;;;;;;0.50;0.30;;;;;;;;;;5026376;28;20439;-90
2022/07/27 09:50:57;;;;;;;0.10;0.10;;;;;;;;;;5035200;28;20918;-86
2022/07/27 09:53:25;;;;;;;0.10;0.10;;;;;;;;;;5051484;28;20425;-87
2022/07/27 09:56:00;;;;;;;0.10;0.10;;;;;;;;;;5031693;28;20442;-86
2022/07/27 09:58:41;;;;;;;0.10;0.10;;;;;;;;;;5039661;28;20450;-88
2022/07/27 10:01:11;;;;;;;0.20;0.20;;;;;;;;;;5032585;28;20758;-88
2022/07/27 10:03:39;;;;;;;0.10;0.10;;;;;;;;;;5028289;28;20432;-91
2022/07/27 10:06:05;;;;;;;0.10;0.10;;;;;;;;;;5032311;28;21052;-87
2022/07/27 10:08:32;;;;;;;0.10;0.10;;;;;;;;;;5043683;28;20425;-88
2022/07/27 10:10:58;;;;;;;0.10;0.10;;;;;;;;;;5030539;28;20928;-88
2022/07/27 10:13:24;;;;;;;0.10;0.10;;;;;;;;;;5032806;28;20425;-89
2022/07/27 10:15:51;;;;;;;0.10;0.10;;;;;;;;;;5047845;28;20427;-88
2022/07/27 10:18:25;;;;;;;0.10;0.10;;;;;;;;;;5045405;28;20914;-89
2022/07/27 10:20:52;;;;;;;0.10;0.10;;;;;;;;;;5038844;28;20489;-90
2022/07/27 10:23:37;;;;;;;0.10;0.10;;;;;;;;;;5032930;28;20430;-91
2022/07/27 10:26:12;;;;;;;0.60;0.30;;;;;;;;;;5029626;28;20459;-91
2022/07/27 10:28:48;;;;;;;0.00;0.00;;;;;;;;;;5039093;28;20478;-94
2022/07/27 10:31:18;;;;;;;0.10;0.10;;;;;;;;;;5037491;28;20439;-91
2022/07/27 10:33:45;;;;;;;0.10;0.10;;;;;;;;;;5026693;28;20434;-95
2022/07/27 10:36:23;;;;;;;0.10;0.10;;;;;;;;;;5028221;28;20435;-94
2022/07/27 10:38:51;;;;;;;0.00;0.00;;;;;;;;;;5036087;28;20461;-95
2022/07/27 10:41:22;;;;;;;0.20;0.20;;;;;;;;;;5045270;28;20427;-87
2022/07/27 10:43:50;;;;;;;0.10;0.10;;;;;;;;;;5052141;28;20445;-94
2022/07/27 10:46:22;;;;;;;0.10;0.10;;;;;;;;;;5036314;28;20427;-89
2022/07/27 10:48:48;;;;;;;0.10;0.10;;;;;;;;;;5043956;28;20441;-89
2022/07/27 10:51:17;;;;;;;0.10;0.10;;;;;;;;;;5033037;28;20468;-92
2022/07/27 10:53:44;;;;;;;0.10;0.10;;;;;;;;;;5047107;28;20437;-87
2022/07/27 10:56:10;;;;;;;0.00;0.00;;;;;;;;;;5047056;28;20431;-94
2022/07/27 10:58:36;;;;;;;0.10;0.10;;;;;;;;;;5033886;28;20429;-89
2022/07/27 11:01:06;;;;;;;0.40;0.25;;;;;;;;;;5049405;28;20440;-89
2022/07/27 11:03:38;;;;;;;0.10;0.10;;;;;;;;;;5045130;28;20442;-91
2022/07/27 11:06:11;;;;;;;0.10;0.10;;;;;;;;;;5046002;28;20425;-86
2022/07/27 11:08:44;;;;;;;0.10;0.10;;;;;;;;;;5038017;28;20430;-87
2022/07/27 11:11:14;;;;;;;0.10;0.10;;;;;;;;;;5021157;28;20447;-85
2022/07/27 11:13:40;;;;;;;0.10;0.10;;;;;;;;;;5043415;28;20952;-85
2022/07/27 11:16:08;;;;;;;0.10;0.10;;;;;;;;;;5043032;28;20486;-87
2022/07/27 11:18:34;;;;;;;0.10;0.10;;;;;;;;;;5037946;28;20449;-87
2022/07/27 11:21:18;;;;;;;0.50;0.20;;;;;;;;;;5035653;28;20409;-84
2022/07/27 11:23:45;;;;;;;0.10;0.10;;;;;;;;;;5029757;28;20439;-85
2022/07/27 11:26:12;;;;;;;0.60;0.30;;;;;;;;;;5043595;28;20925;-86
2022/07/27 11:28:38;;;;;;;0.13;0.13;;;;;;;;;;5029697;28;20420;-84
2022/07/27 11:31:05;;;;;;;0.10;0.10;;;;;;;;;;5035524;28;20429;-89
2022/07/27 11:33:31;;;;;;;0.10;0.10;;;;;;;;;;5031286;28;20493;-88
2022/07/27 11:35:59;;;;;;;0.10;0.10;;;;;;;;;;5039518;28;20468;-86
2022/07/27 11:38:25;;;;;;;0.10;0.10;;;;;;;;;;5038941;28;20484;-88
2022/07/27 11:40:52;;;;;;;0.10;0.10;;;;;;;;;;5013080;28;20435;-88
2022/07/27 11:43:35;;;;;;;0.10;0.10;;;;;;;;;;5036786;28;20916;-86
2022/07/27 11:46:12;;;;;;;0.10;0.10;;;;;;;;;;5027616;28;20541;-86
2022/07/27 11:48:38;;;;;;;0.10;0.10;;;;;;;;;;5030291;28;20429;-87
2022/07/27 11:51:04;;;;;;;0.10;0.10;;;;;;;;;;5029123;28;20434;-84
2022/07/27 11:53:31;;;;;;;0.17;0.17;;;;;;;;;;5043788;28;20771;-90
2022/07/27 11:55:57;;;;;;;0.10;0.10;;;;;;;;;;5025432;28;20433;-90
2022/07/27 11:58:23;;;;;;;0.08;0.08;;;;;;;;;;5011576;28;20494;-86
2022/07/27 12:00:49;;;;;;;0.10;0.10;;;;;;;;;;5040425;28;20433;-89
2022/07/27 12:03:28;;;;;;;0.10;0.10;;;;;;;;;;5012008;28;20427;-90
2022/07/27 12:05:58;;;;;;;0.10;0.10;;;;;;;;;;5029579;28;20438;-90
2022/07/27 12:08:25;;;;;;;0.00;0.00;;;;;;;;;;5039807;28;20812;-84
2022/07/27 12:11:00;;;;;;;0.10;0.10;;;;;;;;;;5039997;28;20501;-90
2022/07/27 12:13:33;;;;;;;0.30;0.30;;;;;;;;;;5030326;28;20458;-87
2022/07/27 12:15:59;;;;;;;0.10;0.10;;;;;;;;;;5028710;28;20437;-88
2022/07/27 12:18:25;;;;;;;0.10;0.10;;;;;;;;;;5045474;28;20440;-85
2022/07/27 12:20:52;;;;;;;0.10;0.10;;;;;;;;;;5050963;28;20428;-92
2022/07/27 12:23:18;;;;;;;0.40;0.40;;;;;;;;;;5031522;28;20893;-90
2022/07/27 12:25:45;;;;;;;0.10;0.10;;;;;;;;;;5046052;28;20429;-90
2022/07/27 12:28:13;;;;;;;0.10;0.10;;;;;;;;;;5026568;28;20434;-86
2022/07/27 12:30:44;;;;;;;0.00;0.00;;;;;;;;;;5010223;28;20439;-87
2022/07/27 12:33:25;;;;;;;1.40;0.70;;;;;;;;;;5036256;28;20919;-81
2022/07/27 12:35:52;;;;;;;0.77;0.38;;;;;;;;;;5028764;28;20431;-89
2022/07/27 12:38:18;;;;;;;0.10;0.10;;;;;;;;;;5030992;28;20429;-87
2022/07/27 12:40:46;;;;;;;0.10;0.10;;;;;;;;;;5033577;28;20921;-87
2022/07/27 12:43:14;;;;;;;0.03;0.03;;;;;;;;;;5029722;28;20460;-85
2022/07/27 12:45:40;;;;;;;0.20;0.20;;;;;;;;;;5039714;28;20505;-86
2022/07/27 12:48:08;;;;;;;0.10;0.10;;;;;;;;;;5028156;28;20910;-86
2022/07/27 12:50:34;;;;;;;0.10;0.10;;;;;;;;;;5042446;28;20444;-87
2022/07/27 12:53:01;;;;;;;0.10;0.10;;;;;;;;;;5029406;28;20415;-83
2022/07/27 12:55:27;;;;;;;0.10;0.10;;;;;;;;;;5029936;28;20406;-89
2022/07/27 12:57:53;;;;;;;0.10;0.10;;;;;;;;;;5029955;28;20510;-94
2022/07/27 13:00:19;;;;;;;0.10;0.10;;;;;;;;;;5013982;28;20437;-90
2022/07/27 13:02:45;;;;;;;0.10;0.10;;;;;;;;;;5028275;28;20528;-92
2022/07/27 13:05:13;;;;;;;0.10;0.10;;;;;;;;;;5028116;28;20437;-92
2022/07/27 13:07:40;;;;;;;0.10;0.10;;;;;;;;;;5036146;28;20425;-88
2022/07/27 13:10:08;;;;;;;0.00;0.00;;;;;;;;;;5030437;28;20456;-90
2022/07/27 13:12:34;;;;;;;0.10;0.10;;;;;;;;;;5045469;28;20446;-91
2022/07/27 13:15:01;;;;;;;0.00;0.00;;;;;;;;;;5028339;28;20514;-92
2022/07/27 13:17:27;;;;;;;0.00;0.00;;;;;;;;;;5035920;28;20494;-94
2022/07/27 13:19:53;;;;;;;0.10;0.10;;;;;;;;;;5031923;28;20423;-95
2022/07/27 13:22:19;;;;;;;0.00;0.00;;;;;;;;;;5048012;28;20424;-95
2022/07/27 13:24:45;;;;;;;0.10;0.10;;;;;;;;;;5042677;28;20420;-95
2022/07/27 13:27:12;;;;;;;0.10;0.10;;;;;;;;;;5057479;28;20437;-94
2022/07/27 13:29:38;;;;;;;0.20;0.20;;;;;;;;;;5025991;28;20439;-91
2022/07/27 13:32:04;;;;;;;0.37;0.37;;;;;;;;;;5045023;28;20429;-95
2022/07/27 13:34:30;;;;;;;0.10;0.10;;;;;;;;;;5055627;28;20430;-95
2022/07/27 13:36:56;;;;;;;0.10;0.10;;;;;;;;;;5046626;28;20438;-92
2022/07/27 13:39:22;;;;;;;0.10;0.10;;;;;;;;;;5032439;28;20432;-85
2022/07/27 13:41:51;;;;;;;0.10;0.10;;;;;;;;;;5044812;28;20964;-87
2022/07/27 13:44:18;;;;;;;0.20;0.20;;;;;;;;;;5046337;28;20454;-93
2022/07/27 13:46:44;;;;;;;0.10;0.10;;;;;;;;;;5021726;28;20431;-83
2022/07/27 13:49:11;;;;;;;0.10;0.10;;;;;;;;;;5032431;28;20434;-86
2022/07/27 13:51:37;;;;;;;0.80;0.30;;;;;;;;;;5042117;28;20421;-91
2022/07/27 13:54:03;;;;;;;0.00;0.00;;;;;;;;;;5047066;28;20934;-86
2022/07/27 13:56:31;;;;;;;0.00;0.00;;;;;;;;;;5012773;28;20773;-90
2022/07/27 13:58:57;;;;;;;0.00;0.00;;;;;;;;;;5031313;28;20546;-92
2022/07/27 14:01:23;;;;;;;0.10;0.10;;;;;;;;;;5042174;28;20525;-88
2022/07/27 14:03:50;;;;;;;0.10;0.10;;;;;;;;;;5030662;28;20441;-89
2022/07/27 14:06:17;;;;;;;0.10;0.10;;;;;;;;;;5031616;28;20403;-88
2022/07/27 14:08:43;;;;;;;0.10;0.10;;;;;;;;;;5044355;28;20485;-86
2022/07/27 14:11:09;;;;;;;0.10;0.10;;;;;;;;;;5047516;28;20419;-86
2022/07/27 14:13:35;;;;;;;0.10;0.10;;;;;;;;;;5046799;28;20524;-86
2022/07/27 14:16:01;;;;;;;0.10;0.10;;;;;;;;;;5030091;28;20431;-87
2022/07/27 14:18:29;;;;;;;0.10;0.10;;;;;;;;;;5019531;28;20501;-87
2022/07/27 14:20:57;;;;;;;0.10;0.10;;;;;;;;;;5063287;28;20452;-86
2022/07/27 14:23:23;;;;;;;0.10;0.10;;;;;;;;;;5036151;28;20517;-87
2022/07/27 14:25:50;;;;;;;1.00;0.50;;;;;;;;;;5043282;28;20429;-85
2022/07/27 14:28:16;;;;;;;0.10;0.10;;;;;;;;;;5030469;28;20423;-87
2022/07/27 14:30:42;;;;;;;0.00;0.00;;;;;;;;;;5012106;28;20506;-87
2022/07/27 14:33:08;;;;;;;0.10;0.10;;;;;;;;;;5014009;28;20990;-86
2022/07/27 14:35:34;;;;;;;0.10;0.10;;;;;;;;;;5042746;28;20508;-86
2022/07/27 14:38:00;;;;;;;0.10;0.10;;;;;;;;;;5031643;28;20839;-85
2022/07/27 14:40:27;;;;;;;0.30;0.30;;;;;;;;;;5049309;28;20450;-88
2022/07/27 14:42:53;;;;;;;0.10;0.10;;;;;;;;;;5033966;28;20431;-92
2022/07/27 14:45:19;;;;;;;0.10;0.10;;;;;;;;;;5029686;28;20440;-87
2022/07/27 14:47:46;;;;;;;0.10;0.10;;;;;;;;;;5045240;28;20431;-88